createdAt,value
2023-01-12T00:00:05.432Z,1014.46
2023-01-12T00:01:05.552Z,1014.43
2023-01-12T00:02:07.552Z,1014.48
2023-01-12T00:03:05.891Z,1014.54
2023-01-12T00:04:06.135Z,1014.54
2023-01-12T00:05:06.225Z,1014.56
2023-01-12T00:06:06.426Z,1014.58
2023-01-12T00:07:06.574Z,1014.65
2023-01-12T00:08:06.744Z,1014.64
2023-01-12T00:09:06.942Z,1014.68
2023-01-12T00:10:07.103Z,1014.70
2023-01-12T00:11:07.280Z,1014.72
2023-01-12T00:12:07.430Z,1014.74
2023-01-12T00:13:07.620Z,1014.76
2023-01-12T00:14:07.803Z,1014.67
2023-01-12T00:15:07.988Z,1014.73
2023-01-12T00:16:08.196Z,1014.68
2023-01-12T00:17:08.341Z,1014.57
2023-01-12T00:18:08.499Z,1014.43
2023-01-12T00:19:08.671Z,1014.34
2023-01-12T00:20:08.829Z,1014.36
2023-01-12T00:21:09.039Z,1014.40
2023-01-12T00:22:09.191Z,1014.36
2023-01-12T00:23:09.387Z,1014.37
2023-01-12T00:24:09.540Z,1014.29
2023-01-12T00:25:09.713Z,1014.29
2023-01-12T00:26:09.897Z,1014.35
2023-01-12T00:27:10.067Z,1014.36
2023-01-12T00:28:10.220Z,1014.30
2023-01-12T00:29:10.390Z,1014.28
2023-01-12T00:30:10.546Z,1014.31
2023-01-12T00:31:10.755Z,1014.28
2023-01-12T00:32:10.883Z,1014.36
2023-01-12T00:33:11.068Z,1014.37
2023-01-12T00:34:11.259Z,1014.37
2023-01-12T00:35:11.460Z,1014.42
2023-01-12T00:36:11.629Z,1014.36
2023-01-12T00:37:11.770Z,1014.34
2023-01-12T00:38:11.928Z,1014.37
2023-01-12T00:39:12.103Z,1014.34
2023-01-12T00:40:12.251Z,1014.34
2023-01-12T00:41:12.449Z,1014.32
2023-01-12T00:42:12.615Z,1014.30
2023-01-12T00:43:12.777Z,1014.25
2023-01-12T00:44:12.928Z,1014.24
2023-01-12T00:45:13.122Z,1014.20
2023-01-12T00:46:13.354Z,1014.24
2023-01-12T00:47:13.473Z,1014.22
2023-01-12T00:48:13.639Z,1014.23
2023-01-12T00:49:13.826Z,1014.25
2023-01-12T00:50:13.999Z,1014.17
2023-01-12T00:51:14.207Z,1014.09
2023-01-12T00:52:24.882Z,1014.04
2023-01-12T00:53:15.517Z,1014.05
2023-01-12T00:54:14.679Z,1014.08
2023-01-12T00:55:14.878Z,1014.11
2023-01-12T00:56:15.028Z,1014.16
2023-01-12T00:57:15.222Z,1014.20
2023-01-12T00:58:15.376Z,1014.22
2023-01-12T00:59:15.547Z,1014.20
2023-01-12T01:00:15.727Z,1014.18
2023-01-12T01:01:16.024Z,1014.22
2023-01-12T01:02:16.189Z,1014.18
2023-01-12T01:03:16.257Z,1014.17
2023-01-12T01:04:16.422Z,1014.24
2023-01-12T01:05:16.607Z,1014.31
2023-01-12T01:06:16.784Z,1014.34
2023-01-12T01:07:16.944Z,1014.38
2023-01-12T01:08:17.126Z,1014.38
2023-01-12T01:09:17.282Z,1014.39
2023-01-12T01:10:17.448Z,1014.49
2023-01-12T01:11:17.645Z,1014.43
2023-01-12T01:12:17.807Z,1014.42
2023-01-12T01:13:17.966Z,1014.31
2023-01-12T01:14:18.136Z,1014.38
2023-01-12T01:15:18.335Z,1014.27
2023-01-12T01:16:18.590Z,1014.25
2023-01-12T01:17:18.689Z,1014.19
2023-01-12T01:18:18.837Z,1014.27
2023-01-12T01:19:19.026Z,1014.22
2023-01-12T01:20:19.205Z,1014.22
2023-01-12T01:21:19.388Z,1014.14
2023-01-12T01:22:19.538Z,1014.11
2023-01-12T01:23:19.724Z,1014.13
2023-01-12T01:24:19.895Z,1014.12
2023-01-12T01:25:20.054Z,1014.09
2023-01-12T01:26:20.257Z,1014.13
2023-01-12T01:27:20.388Z,1013.97
2023-01-12T01:28:20.539Z,1013.91
2023-01-12T01:29:20.754Z,1013.99
2023-01-12T01:30:20.895Z,1013.95
2023-01-12T01:31:21.143Z,1013.91
2023-01-12T01:32:21.288Z,1013.92
2023-01-12T01:33:21.445Z,1013.91
2023-01-12T01:34:21.596Z,1013.87
2023-01-12T01:35:21.757Z,1013.79
2023-01-12T01:36:21.913Z,1013.91
2023-01-12T01:37:22.102Z,1013.89
2023-01-12T01:38:22.262Z,1013.94
2023-01-12T01:39:22.433Z,1013.83
2023-01-12T01:40:22.592Z,1013.92
2023-01-12T01:41:22.776Z,1013.91
2023-01-12T01:42:22.945Z,1013.84
2023-01-12T01:43:23.115Z,1013.89
2023-01-12T01:44:23.272Z,1013.97
2023-01-12T01:45:23.436Z,1013.87
2023-01-12T01:46:23.628Z,1013.92
2023-01-12T01:47:23.788Z,1013.87
2023-01-12T01:48:23.944Z,1013.84
2023-01-12T01:49:24.116Z,1013.84
2023-01-12T01:50:24.264Z,1013.83
2023-01-12T01:51:24.432Z,1013.82
2023-01-12T01:52:24.614Z,1013.74
2023-01-12T01:53:24.793Z,1013.78
2023-01-12T01:54:24.969Z,1013.69
2023-01-12T01:55:25.124Z,1013.72
2023-01-12T01:56:25.274Z,1013.73
2023-01-12T01:57:25.464Z,1013.59
2023-01-12T01:58:25.625Z,1013.60
2023-01-12T01:59:25.858Z,1013.50
2023-01-12T02:00:25.989Z,1013.50
2023-01-12T02:01:26.244Z,1013.41
2023-01-12T02:02:26.365Z,1013.53
2023-01-12T02:03:26.482Z,1013.51
2023-01-12T02:04:26.644Z,1013.45
2023-01-12T02:05:26.847Z,1013.46
2023-01-12T02:06:26.997Z,1013.49
2023-01-12T02:07:27.184Z,1013.44
2023-01-12T02:08:27.335Z,1013.44
2023-01-12T02:09:27.513Z,1013.46
2023-01-12T02:10:27.672Z,1013.44
2023-01-12T02:11:27.862Z,1013.37
2023-01-12T02:12:28.021Z,1013.41
2023-01-12T02:13:28.192Z,1013.47
2023-01-12T02:14:28.361Z,1013.44
2023-01-12T02:15:28.511Z,1013.48
2023-01-12T02:16:28.685Z,1013.45
2023-01-12T02:17:28.861Z,1013.45
2023-01-12T02:18:29.024Z,1013.51
2023-01-12T02:19:29.184Z,1013.46
2023-01-12T02:20:29.339Z,1013.46
2023-01-12T02:21:29.505Z,1013.35
2023-01-12T02:22:29.681Z,1013.32
2023-01-12T02:23:29.852Z,1013.31
2023-01-12T02:24:30.020Z,1013.29
2023-01-12T02:25:30.187Z,1013.11
2023-01-12T02:26:30.341Z,1013.26
2023-01-12T02:27:30.536Z,1013.23
2023-01-12T02:28:30.689Z,1013.21
2023-01-12T02:29:30.856Z,1013.19
2023-01-12T02:30:31.010Z,1013.22
2023-01-12T02:31:31.225Z,1013.17
2023-01-12T02:32:31.351Z,1013.25
2023-01-12T02:33:31.528Z,1013.22
2023-01-12T02:34:31.680Z,1013.19
2023-01-12T02:35:31.891Z,1013.12
2023-01-12T02:36:32.060Z,1013.23
2023-01-12T02:37:32.231Z,1013.21
2023-01-12T02:38:32.410Z,1013.14
2023-01-12T02:39:32.575Z,1013.11
2023-01-12T02:40:32.732Z,1013.08
2023-01-12T02:41:32.908Z,1013.04
2023-01-12T02:42:33.061Z,1013.09
2023-01-12T02:43:33.232Z,1013.07
2023-01-12T02:44:33.400Z,1013.09
2023-01-12T02:45:33.560Z,1013.07
2023-01-12T02:46:33.739Z,1013.09
2023-01-12T02:47:33.910Z,1013.02
2023-01-12T02:48:34.095Z,1012.98
2023-01-12T02:49:34.249Z,1013.04
2023-01-12T02:50:34.412Z,1013.04
2023-01-12T02:51:34.578Z,1013.00
2023-01-12T02:52:34.767Z,1013.04
2023-01-12T02:53:34.923Z,1013.02
2023-01-12T02:54:35.088Z,1012.99
2023-01-12T02:55:35.271Z,1013.02
2023-01-12T02:56:35.396Z,1013.01
2023-01-12T02:57:35.569Z,1013.05
2023-01-12T02:58:35.736Z,1013.04
2023-01-12T02:59:35.915Z,1013.00
2023-01-12T03:00:36.105Z,1012.99
2023-01-12T03:01:36.271Z,1013.00
2023-01-12T03:02:36.448Z,1013.03
2023-01-12T03:03:36.579Z,1013.01
2023-01-12T03:04:36.748Z,1012.99
2023-01-12T03:05:36.909Z,1013.05
2023-01-12T03:06:37.079Z,1013.01
2023-01-12T03:07:37.255Z,1012.97
2023-01-12T03:08:37.417Z,1012.96
2023-01-12T03:09:37.596Z,1012.97
2023-01-12T03:10:37.749Z,1012.93
2023-01-12T03:11:37.903Z,1012.96
2023-01-12T03:12:38.079Z,1012.91
2023-01-12T03:13:38.254Z,1012.92
2023-01-12T03:14:38.412Z,1012.79
2023-01-12T03:15:38.585Z,1012.92
2023-01-12T03:16:38.743Z,1012.85
2023-01-12T03:17:38.931Z,1012.81
2023-01-12T03:18:39.091Z,1012.81
2023-01-12T03:19:39.249Z,1012.82
2023-01-12T03:20:39.410Z,1012.85
2023-01-12T03:21:39.577Z,1012.82
2023-01-12T03:22:39.786Z,1012.84
2023-01-12T03:23:39.932Z,1012.79
2023-01-12T03:24:40.096Z,1012.76
2023-01-12T03:25:40.267Z,1012.79
2023-01-12T03:26:40.428Z,1012.78
2023-01-12T03:27:40.618Z,1012.78
2023-01-12T03:28:40.778Z,1012.81
2023-01-12T03:29:40.945Z,1012.81
2023-01-12T03:30:41.090Z,1012.83
2023-01-12T03:31:41.312Z,1012.81
2023-01-12T03:32:41.424Z,1012.81
2023-01-12T03:33:41.614Z,1012.79
2023-01-12T03:34:41.769Z,1012.80
2023-01-12T03:35:41.942Z,1012.78
2023-01-12T03:36:42.080Z,1012.76
2023-01-12T03:37:42.247Z,1012.76
2023-01-12T03:38:42.426Z,1012.73
2023-01-12T03:39:42.596Z,1012.76
2023-01-12T03:40:42.746Z,1012.81
2023-01-12T03:41:42.916Z,1012.67
2023-01-12T03:42:43.099Z,1012.70
2023-01-12T03:43:43.271Z,1012.72
2023-01-12T03:44:43.431Z,1012.81
2023-01-12T03:45:43.601Z,1012.77
2023-01-12T03:46:43.827Z,1012.75
2023-01-12T03:47:43.949Z,1012.81
2023-01-12T03:48:44.107Z,1012.77
2023-01-12T03:49:44.267Z,1012.76
2023-01-12T03:50:44.435Z,1012.72
2023-01-12T03:51:44.607Z,1012.77
2023-01-12T03:52:44.786Z,1012.73
2023-01-12T03:53:44.949Z,1012.72
2023-01-12T03:54:45.105Z,1012.70
2023-01-12T03:55:45.265Z,1012.72
2023-01-12T03:56:45.474Z,1012.71
2023-01-12T03:57:45.602Z,1012.62
2023-01-12T03:58:45.756Z,1012.70
2023-01-12T03:59:45.925Z,1012.59
2023-01-12T04:00:46.144Z,1012.60
2023-01-12T04:01:46.380Z,1012.64
2023-01-12T04:02:46.447Z,1012.65
2023-01-12T04:03:46.627Z,1012.59
2023-01-12T04:04:46.784Z,1012.56
2023-01-12T04:05:46.954Z,1012.62
2023-01-12T04:06:47.114Z,1012.60
2023-01-12T04:07:47.263Z,1012.62
2023-01-12T04:08:47.435Z,1012.52
2023-01-12T04:09:47.599Z,1012.58
2023-01-12T04:10:47.797Z,1012.56
2023-01-12T04:11:47.964Z,1012.51
2023-01-12T04:12:48.146Z,1012.51
2023-01-12T04:13:48.325Z,1012.51
2023-01-12T04:14:48.487Z,1012.54
2023-01-12T04:15:48.659Z,1012.51
2023-01-12T04:16:48.825Z,1012.51
2023-01-12T04:17:48.977Z,1012.46
2023-01-12T04:18:49.199Z,1012.52
2023-01-12T04:19:49.355Z,1012.50
2023-01-12T04:20:49.539Z,1012.55
2023-01-12T04:21:49.705Z,1012.53
2023-01-12T04:22:49.875Z,1012.50
2023-01-12T04:23:50.037Z,1012.40
2023-01-12T04:24:50.196Z,1012.37
2023-01-12T04:25:50.419Z,1012.31
2023-01-12T04:26:50.557Z,1012.36
2023-01-12T04:27:50.715Z,1012.29
2023-01-12T04:28:50.885Z,1012.38
2023-01-12T04:29:51.044Z,1012.37
2023-01-12T04:30:51.255Z,1012.31
2023-01-12T04:31:51.435Z,1012.36
2023-01-12T04:32:51.565Z,1012.29
2023-01-12T04:33:51.715Z,1012.24
2023-01-12T04:34:51.878Z,1012.31
2023-01-12T04:35:52.052Z,1012.33
2023-01-12T04:36:52.213Z,1012.36
2023-01-12T04:37:52.388Z,1012.35
2023-01-12T04:38:52.577Z,1012.33
2023-01-12T04:39:52.731Z,1012.24
2023-01-12T04:40:52.913Z,1012.28
2023-01-12T04:41:53.064Z,1012.25
2023-01-12T04:42:53.239Z,1012.26
2023-01-12T04:43:53.409Z,1012.21
2023-01-12T04:44:53.575Z,1012.27
2023-01-12T04:45:53.741Z,1012.26
2023-01-12T04:46:53.911Z,1012.29
2023-01-12T04:47:54.077Z,1012.27
2023-01-12T04:48:54.245Z,1012.27
2023-01-12T04:49:54.395Z,1012.20
2023-01-12T04:50:54.594Z,1012.27
2023-01-12T04:51:54.740Z,1012.22
2023-01-12T04:52:54.910Z,1012.23
2023-01-12T04:53:55.103Z,1012.20
2023-01-12T04:54:56.871Z,1012.20
2023-01-12T04:55:55.415Z,1012.18
2023-01-12T04:56:55.581Z,1012.07
2023-01-12T04:57:55.743Z,1012.18
2023-01-12T04:58:55.918Z,1012.18
2023-01-12T04:59:56.073Z,1012.25
2023-01-12T05:00:56.326Z,1012.29
2023-01-12T05:01:56.458Z,1012.31
2023-01-12T05:02:56.592Z,1012.21
2023-01-12T05:03:56.821Z,1012.31
2023-01-12T05:04:56.952Z,1012.20
2023-01-12T05:05:57.136Z,1012.18
2023-01-12T05:06:57.292Z,1012.20
2023-01-12T05:07:57.452Z,1012.17
2023-01-12T05:08:57.638Z,1012.18
2023-01-12T05:09:57.784Z,1012.17
2023-01-12T05:10:57.962Z,1012.14
2023-01-12T05:11:58.126Z,1012.20
2023-01-12T05:12:58.282Z,1012.16
2023-01-12T05:13:58.473Z,1012.21
2023-01-12T05:14:58.631Z,1012.13
2023-01-12T05:15:58.792Z,1012.06
2023-01-12T05:16:59.007Z,1012.02
2023-01-12T05:17:59.132Z,1012.12
2023-01-12T05:18:59.316Z,1012.08
2023-01-12T05:20:00.922Z,1012.09
2023-01-12T05:20:59.658Z,1012.05
2023-01-12T05:21:59.826Z,1011.90
2023-01-12T05:22:59.989Z,1012.03
2023-01-12T05:24:00.141Z,1011.99
2023-01-12T05:25:00.311Z,1012.05
2023-01-12T05:26:00.485Z,1011.96
2023-01-12T05:27:00.664Z,1011.98
2023-01-12T05:28:00.816Z,1011.99
2023-01-12T05:29:00.970Z,1012.02
2023-01-12T05:30:01.130Z,1011.99
2023-01-12T05:31:01.342Z,1012.00
2023-01-12T05:32:01.463Z,1011.97
2023-01-12T05:33:01.630Z,1012.00
2023-01-12T05:34:01.790Z,1011.98
2023-01-12T05:35:01.950Z,1012.02
2023-01-12T05:36:02.132Z,1012.00
2023-01-12T05:37:02.302Z,1012.05
2023-01-12T05:38:02.460Z,1012.03
2023-01-12T05:39:02.633Z,1012.02
2023-01-12T05:40:02.792Z,1011.99
2023-01-12T05:41:02.984Z,1011.97
2023-01-12T05:42:03.119Z,1011.98
2023-01-12T05:43:03.320Z,1012.00
2023-01-12T05:44:03.513Z,1012.01
2023-01-12T05:45:03.671Z,1011.98
2023-01-12T05:46:03.873Z,1011.97
2023-01-12T05:47:04.009Z,1011.92
2023-01-12T05:48:04.180Z,1011.92
2023-01-12T05:49:04.352Z,1011.93
2023-01-12T05:50:04.487Z,1011.91
2023-01-12T05:51:04.656Z,1011.90
2023-01-12T05:52:04.836Z,1011.93
2023-01-12T05:53:04.998Z,1011.88
2023-01-12T05:54:05.160Z,1011.89
2023-01-12T05:55:05.320Z,1011.96
2023-01-12T05:56:05.489Z,1011.90
2023-01-12T05:57:05.649Z,1011.89
2023-01-12T05:58:05.811Z,1011.94
2023-01-12T05:59:06.019Z,1011.88
2023-01-12T06:00:06.186Z,1011.88
2023-01-12T06:01:06.399Z,1011.86
2023-01-12T06:02:06.528Z,1011.83
2023-01-12T06:03:06.681Z,1011.82
2023-01-12T06:04:06.857Z,1011.83
2023-01-12T06:05:07.020Z,1011.88
2023-01-12T06:06:07.181Z,1011.83
2023-01-12T06:07:07.351Z,1011.83
2023-01-12T06:08:07.512Z,1011.77
2023-01-12T06:09:07.689Z,1011.80
2023-01-12T06:10:07.855Z,1011.78
2023-01-12T06:11:08.032Z,1011.80
2023-01-12T06:12:08.197Z,1011.75
2023-01-12T06:13:08.360Z,1011.85
2023-01-12T06:14:08.514Z,1011.76
2023-01-12T06:15:08.709Z,1011.78
2023-01-12T06:16:09.018Z,1011.79
2023-01-12T06:17:09.074Z,1011.75
2023-01-12T06:18:09.229Z,1011.73
2023-01-12T06:19:11.118Z,1011.72
2023-01-12T06:20:09.573Z,1011.72
2023-01-12T06:21:09.738Z,1011.71
2023-01-12T06:22:09.898Z,1011.73
2023-01-12T06:23:10.071Z,1011.69
2023-01-12T06:24:10.231Z,1011.69
2023-01-12T06:25:10.393Z,1011.62
2023-01-12T06:26:10.776Z,1011.77
2023-01-12T06:27:10.737Z,1011.75
2023-01-12T06:28:10.898Z,1011.68
2023-01-12T06:29:11.088Z,1011.66
2023-01-12T06:30:11.241Z,1011.66
2023-01-12T06:31:11.454Z,1011.64
2023-01-12T06:32:11.588Z,1011.60
2023-01-12T06:33:11.760Z,1011.62
2023-01-12T06:34:11.956Z,1011.63
2023-01-12T06:35:19.206Z,1011.59
2023-01-12T06:36:13.304Z,1011.57
2023-01-12T06:37:12.480Z,1011.55
2023-01-12T06:38:12.602Z,1011.55
2023-01-12T06:39:12.797Z,1011.50
2023-01-12T06:40:12.974Z,1011.49
2023-01-12T06:41:13.133Z,1011.52
2023-01-12T06:42:13.278Z,1011.46
2023-01-12T06:43:13.448Z,1011.51
2023-01-12T06:44:13.662Z,1011.47
2023-01-12T06:45:13.807Z,1011.46
2023-01-12T06:46:14.054Z,1011.48
2023-01-12T06:47:14.167Z,1011.48
2023-01-12T06:48:14.399Z,1011.45
2023-01-12T06:49:14.528Z,1011.46
2023-01-12T06:50:14.689Z,1011.45
2023-01-12T06:51:14.905Z,1011.43
2023-01-12T06:52:15.053Z,1011.40
2023-01-12T06:53:15.246Z,1011.37
2023-01-12T06:54:17.744Z,1011.36
2023-01-12T06:55:15.620Z,1011.37
2023-01-12T06:56:15.768Z,1011.31
2023-01-12T06:57:15.952Z,1011.42
2023-01-12T06:58:16.141Z,1011.36
2023-01-12T06:59:16.345Z,1011.40
2023-01-12T07:00:16.576Z,1011.37
2023-01-12T07:01:16.831Z,1011.37
2023-01-12T07:02:16.900Z,1011.38
2023-01-12T07:03:17.048Z,1011.39
2023-01-12T07:04:17.282Z,1011.41
2023-01-12T07:05:17.392Z,1011.33
2023-01-12T07:06:17.583Z,1011.33
2023-01-12T07:07:17.772Z,1011.31
2023-01-12T07:08:17.918Z,1011.31
2023-01-12T07:09:18.118Z,1011.31
2023-01-12T07:10:18.258Z,1011.35
2023-01-12T07:11:18.477Z,1011.31
2023-01-12T07:12:18.629Z,1011.35
2023-01-12T07:13:18.776Z,1011.33
2023-01-12T07:14:18.987Z,1011.30
2023-01-12T07:15:19.150Z,1011.30
2023-01-12T07:16:19.408Z,1011.25
2023-01-12T07:17:19.460Z,1011.30
2023-01-12T07:18:19.611Z,1011.26
2023-01-12T07:19:19.819Z,1011.26
2023-01-12T07:20:19.965Z,1011.16
2023-01-12T07:21:20.128Z,1011.21
2023-01-12T07:22:20.277Z,1011.15
2023-01-12T07:23:20.482Z,1011.16
2023-01-12T07:24:20.640Z,1011.14
2023-01-12T07:25:20.817Z,1011.14
2023-01-12T07:26:21.008Z,1011.07
2023-01-12T07:27:21.209Z,1011.17
2023-01-12T07:28:21.357Z,1011.11
2023-01-12T07:29:21.550Z,1011.07
2023-01-12T07:30:21.696Z,1011.15
2023-01-12T07:31:21.924Z,1011.12
2023-01-12T07:32:22.047Z,1011.08
2023-01-12T07:33:22.207Z,1011.00
2023-01-12T07:34:22.389Z,1011.04
2023-01-12T07:35:22.528Z,1011.01
2023-01-12T07:36:22.696Z,1011.08
2023-01-12T07:37:22.859Z,1011.02
2023-01-12T07:38:23.034Z,1011.03
2023-01-12T07:39:23.226Z,1011.00
2023-01-12T07:40:23.387Z,1010.98
2023-01-12T07:41:23.545Z,1010.88
2023-01-12T07:42:23.745Z,1010.88
2023-01-12T07:43:23.876Z,1010.94
2023-01-12T07:44:24.038Z,1010.89
2023-01-12T07:45:24.274Z,1010.88
2023-01-12T07:46:24.451Z,1010.83
2023-01-12T07:47:24.597Z,1010.83
2023-01-12T07:48:24.777Z,1010.81
2023-01-12T07:49:24.986Z,1010.81
2023-01-12T07:50:25.149Z,1010.79
2023-01-12T07:51:25.358Z,1010.80
2023-01-12T07:52:25.505Z,1010.64
2023-01-12T07:53:25.724Z,1010.79
2023-01-12T07:54:25.856Z,1010.79
2023-01-12T07:55:26.062Z,1010.79
2023-01-12T07:56:26.244Z,1010.77
2023-01-12T07:57:26.406Z,1010.76
2023-01-12T07:58:26.588Z,1010.77
2023-01-12T07:59:26.735Z,1010.73
2023-01-12T08:00:26.897Z,1010.79
2023-01-12T08:01:27.220Z,1010.78
2023-01-12T08:02:27.276Z,1010.76
2023-01-12T08:03:27.463Z,1010.83
2023-01-12T08:04:27.660Z,1010.75
2023-01-12T08:05:27.837Z,1010.80
2023-01-12T08:06:28.023Z,1010.74
2023-01-12T08:07:28.165Z,1010.71
2023-01-12T08:08:28.375Z,1010.69
2023-01-12T08:09:28.603Z,1010.71
2023-01-12T08:10:29.044Z,1010.64
2023-01-12T08:11:28.843Z,1010.67
2023-01-12T08:12:29.026Z,1010.62
2023-01-12T08:13:29.185Z,1010.60
2023-01-12T08:14:29.396Z,1010.59
2023-01-12T08:15:29.551Z,1010.64
2023-01-12T08:16:29.734Z,1010.64
2023-01-12T08:17:29.936Z,1010.63
2023-01-12T08:18:30.024Z,1010.66
2023-01-12T08:19:30.202Z,1010.62
2023-01-12T08:20:30.363Z,1010.68
2023-01-12T08:21:30.533Z,1010.66
2023-01-12T08:22:30.703Z,1010.75
2023-01-12T08:23:30.880Z,1010.70
2023-01-12T08:24:31.050Z,1010.77
2023-01-12T08:25:31.199Z,1010.69
2023-01-12T08:26:31.381Z,1010.68
2023-01-12T08:27:31.551Z,1010.71
2023-01-12T08:28:31.734Z,1010.72
2023-01-12T08:29:31.889Z,1010.61
2023-01-12T08:30:32.036Z,1010.62
2023-01-12T08:31:32.214Z,1010.61
2023-01-12T08:32:32.413Z,1010.55
2023-01-12T08:33:32.556Z,1010.55
2023-01-12T08:34:32.763Z,1010.54
2023-01-12T08:35:32.894Z,1010.54
2023-01-12T08:36:33.076Z,1010.54
2023-01-12T08:37:33.302Z,1010.45
2023-01-12T08:38:33.463Z,1010.44
2023-01-12T08:39:33.652Z,1010.49
2023-01-12T08:40:33.807Z,1010.39
2023-01-12T08:41:33.993Z,1010.43
2023-01-12T08:42:34.178Z,1010.47
2023-01-12T08:43:34.371Z,1010.51
2023-01-12T08:44:34.516Z,1010.52
2023-01-12T08:45:34.701Z,1010.48
2023-01-12T08:46:34.964Z,1010.46
2023-01-12T08:47:35.139Z,1010.43
2023-01-12T08:48:35.241Z,1010.41
2023-01-12T08:49:35.387Z,1010.43
2023-01-12T08:50:35.568Z,1010.46
2023-01-12T08:51:35.742Z,1010.41
2023-01-12T08:52:35.913Z,1010.38
2023-01-12T08:53:36.123Z,1010.37
2023-01-12T08:54:36.263Z,1010.36
2023-01-12T08:55:36.444Z,1010.30
2023-01-12T08:56:36.625Z,1010.34
2023-01-12T08:57:36.805Z,1010.35
2023-01-12T08:58:37.004Z,1010.32
2023-01-12T08:59:37.152Z,1010.35
2023-01-12T09:00:37.352Z,1010.36
2023-01-12T09:01:37.638Z,1010.23
2023-01-12T09:02:37.732Z,1010.32
2023-01-12T09:03:37.844Z,1010.27
2023-01-12T09:04:38.057Z,1010.30
2023-01-12T09:05:38.193Z,1010.22
2023-01-12T09:06:38.381Z,1010.29
2023-01-12T09:07:38.553Z,1010.16
2023-01-12T09:08:38.742Z,1010.27
2023-01-12T09:09:38.944Z,1010.24
2023-01-12T09:10:39.104Z,1010.19
2023-01-12T09:11:39.253Z,1010.20
2023-01-12T09:12:39.429Z,1010.16
2023-01-12T09:13:39.623Z,1010.11
2023-01-12T09:14:39.780Z,1010.16
2023-01-12T09:15:39.954Z,1010.14
2023-01-12T09:16:40.179Z,1010.15
2023-01-12T09:17:40.285Z,1010.14
2023-01-12T09:18:40.514Z,1010.04
2023-01-12T09:19:40.673Z,1010.12
2023-01-12T09:20:40.813Z,1010.06
2023-01-12T09:21:40.992Z,1010.04
2023-01-12T09:22:41.183Z,1010.00
2023-01-12T09:23:41.373Z,1010.08
2023-01-12T09:24:41.581Z,1009.98
2023-01-12T09:25:41.712Z,1010.03
2023-01-12T09:26:41.929Z,1009.90
2023-01-12T09:27:42.056Z,1009.93
2023-01-12T09:28:42.240Z,1009.98
2023-01-12T09:29:42.434Z,1009.92
2023-01-12T09:30:42.585Z,1009.90
2023-01-12T09:31:42.832Z,1009.86
2023-01-12T09:32:42.942Z,1009.91
2023-01-12T09:33:43.122Z,1009.87
2023-01-12T09:34:43.355Z,1009.87
2023-01-12T09:35:43.464Z,1009.85
2023-01-12T09:36:43.656Z,1009.78
2023-01-12T09:37:43.834Z,1009.80
2023-01-12T09:38:44.025Z,1009.80
2023-01-12T09:39:44.214Z,1009.76
2023-01-12T09:40:44.364Z,1009.79
2023-01-12T09:41:44.559Z,1009.78
2023-01-12T09:42:44.755Z,1009.73
2023-01-12T09:43:44.951Z,1009.76
2023-01-12T09:44:45.092Z,1009.75
2023-01-12T09:45:45.325Z,1009.78
2023-01-12T09:46:45.447Z,1009.59
2023-01-12T09:47:45.632Z,1009.67
2023-01-12T09:48:45.807Z,1009.67
2023-01-12T09:49:45.999Z,1009.65
2023-01-12T09:50:46.202Z,1009.60
2023-01-12T09:51:46.338Z,1009.59
2023-01-12T09:52:46.526Z,1009.57
2023-01-12T09:53:47.472Z,1009.51
2023-01-12T09:54:47.011Z,1009.59
2023-01-12T09:55:47.049Z,1009.47
2023-01-12T09:56:47.224Z,1009.53
2023-01-12T09:57:47.411Z,1009.38
2023-01-12T09:58:47.593Z,1009.41
2023-01-12T09:59:47.795Z,1009.40
2023-01-12T10:00:47.947Z,1009.42
2023-01-12T10:01:48.201Z,1009.38
2023-01-12T10:02:48.440Z,1009.35
2023-01-12T10:03:48.457Z,1009.42
2023-01-12T10:04:48.704Z,1009.43
2023-01-12T10:05:48.864Z,1009.40
2023-01-12T10:06:48.994Z,1009.39
2023-01-12T10:07:49.204Z,1009.34
2023-01-12T10:08:49.351Z,1009.37
2023-01-12T10:09:49.545Z,1009.30
2023-01-12T10:10:49.781Z,1009.32
2023-01-12T10:11:49.860Z,1009.28
2023-01-12T10:12:50.045Z,1009.31
2023-01-12T10:13:50.233Z,1009.37
2023-01-12T10:14:50.456Z,1009.24
2023-01-12T10:15:50.635Z,1009.32
2023-01-12T10:16:50.752Z,1009.33
2023-01-12T10:17:52.209Z,1009.29
2023-01-12T10:18:52.763Z,1009.35
2023-01-12T10:19:51.285Z,1009.24
2023-01-12T10:20:51.488Z,1009.24
2023-01-12T10:21:51.820Z,1009.12
2023-01-12T10:22:51.843Z,1009.31
2023-01-12T10:23:52.007Z,1009.19
2023-01-12T10:24:52.881Z,1009.19
2023-01-12T10:25:52.381Z,1009.21
2023-01-12T10:26:52.563Z,1009.15
2023-01-12T10:27:52.745Z,1009.24
2023-01-12T10:28:52.933Z,1009.21
2023-01-12T10:29:53.104Z,1009.30
2023-01-12T10:30:56.097Z,1009.16
2023-01-12T10:31:53.494Z,1009.19
2023-01-12T10:32:53.578Z,1009.26
2023-01-12T10:33:53.756Z,1009.07
2023-01-12T10:34:53.960Z,1009.16
2023-01-12T10:35:54.121Z,1009.21
2023-01-12T10:36:55.763Z,1009.16
2023-01-12T10:37:54.450Z,1009.22
2023-01-12T10:38:54.630Z,1009.21
2023-01-12T10:39:54.847Z,1009.19
2023-01-12T10:40:54.979Z,1009.17
2023-01-12T10:41:55.183Z,1009.08
2023-01-12T10:42:55.763Z,1009.10
2023-01-12T10:43:55.537Z,1009.10
2023-01-12T10:44:55.757Z,1009.01
2023-01-12T10:45:56.545Z,1008.98
2023-01-12T10:46:56.045Z,1008.93
2023-01-12T10:47:56.237Z,1009.06
2023-01-12T10:48:56.563Z,1008.98
2023-01-12T10:49:56.603Z,1008.97
2023-01-12T10:50:56.784Z,1008.89
2023-01-12T10:51:56.975Z,1008.99
2023-01-12T10:52:57.165Z,1008.97
2023-01-12T10:53:57.351Z,1008.87
2023-01-12T10:54:58.980Z,1008.91
2023-01-12T10:55:57.714Z,1008.74
2023-01-12T10:56:57.900Z,1008.83
2023-01-12T10:57:58.081Z,1008.76
2023-01-12T10:58:58.272Z,1008.64
2023-01-12T10:59:58.473Z,1008.72
2023-01-12T11:00:58.744Z,1008.72
2023-01-12T11:01:58.902Z,1008.74
2023-01-12T11:02:59.078Z,1008.66
2023-01-12T11:03:59.132Z,1008.66
2023-01-12T11:04:59.323Z,1008.66
2023-01-12T11:05:59.465Z,1008.61
2023-01-12T11:06:59.656Z,1008.62
2023-01-12T11:07:59.856Z,1008.62
2023-01-12T11:09:00.005Z,1008.65
2023-01-12T11:10:00.216Z,1008.65
2023-01-12T11:11:00.357Z,1008.60
2023-01-12T11:12:00.562Z,1008.65
2023-01-12T11:13:00.727Z,1008.63
2023-01-12T11:14:00.888Z,1008.58
2023-01-12T11:15:01.069Z,1008.55
2023-01-12T11:16:01.235Z,1008.40
2023-01-12T11:17:01.429Z,1008.59
2023-01-12T11:18:01.725Z,1008.37
2023-01-12T11:19:01.792Z,1008.52
2023-01-12T11:20:01.977Z,1008.57
2023-01-12T11:21:02.115Z,1008.54
2023-01-12T11:22:02.281Z,1008.51
2023-01-12T11:23:02.433Z,1008.43
2023-01-12T11:24:02.594Z,1008.38
2023-01-12T11:25:02.785Z,1008.07
2023-01-12T11:26:03.041Z,1008.49
2023-01-12T11:27:04.247Z,1008.31
2023-01-12T11:28:03.276Z,1008.41
2023-01-12T11:29:03.445Z,1008.35
2023-01-12T11:30:03.624Z,1008.34
2023-01-12T11:31:03.869Z,1008.43
2023-01-12T11:32:03.974Z,1008.42
2023-01-12T11:33:04.162Z,1008.34
2023-01-12T11:34:04.346Z,1008.34
2023-01-12T11:35:04.909Z,1008.43
2023-01-12T11:36:04.747Z,1008.26
2023-01-12T11:37:04.872Z,1008.33
2023-01-12T11:38:05.064Z,1008.33
2023-01-12T11:39:05.205Z,1008.29
2023-01-12T11:40:05.394Z,1008.10
2023-01-12T11:41:05.553Z,1008.24
2023-01-12T11:42:05.743Z,1008.28
2023-01-12T11:43:05.945Z,1008.16
2023-01-12T11:44:06.115Z,1008.22
2023-01-12T11:45:06.253Z,1008.16
2023-01-12T11:46:06.475Z,1008.11
2023-01-12T11:47:06.612Z,1008.13
2023-01-12T11:48:06.806Z,1008.01
2023-01-12T11:49:06.985Z,1008.18
2023-01-12T11:50:07.173Z,1008.16
2023-01-12T11:51:07.333Z,1008.07
2023-01-12T11:52:07.513Z,1008.11
2023-01-12T11:53:07.721Z,1008.09
2023-01-12T11:54:07.854Z,1008.11
2023-01-12T11:55:08.047Z,1008.12
2023-01-12T11:56:08.224Z,1008.17
2023-01-12T11:57:08.457Z,1008.05
2023-01-12T11:58:08.624Z,1008.05
2023-01-12T11:59:08.773Z,1008.10
2023-01-12T12:00:08.953Z,1008.12
2023-01-12T12:01:09.169Z,1008.05
2023-01-12T12:02:09.341Z,1007.98
2023-01-12T12:03:09.499Z,1007.94
2023-01-12T12:04:09.643Z,1008.05
2023-01-12T12:05:09.849Z,1007.96
2023-01-12T12:06:10.024Z,1008.00
2023-01-12T12:07:10.205Z,1008.01